Time;durP1;ratioP1;P1;durP2;ratioP2;P2;SDS_P1;SDS_P2;PMS_P1;PMS_P2;Temp;Humidity;BMP_temperature;BMP_pressure;BME280_temperature;BME280_humidity;BME280_pressure;Samples;Min_cycle;Max_cycle;Signal;HPM_P1;HPM_P2
2023/03/13 00:00:15;;;;;;;36.30;10.88;;;;;;;;;;5017057;28;20430;-82
2023/03/13 00:02:45;;;;;;;40.90;9.67;;;;;;;;;;5034607;28;20446;-82
2023/03/13 00:05:13;;;;;;;36.80;9.68;;;;;;;;;;5032179;28;20436;-81
2023/03/13 00:07:46;;;;;;;32.17;9.07;;;;;;;;;;5020574;28;20951;-81
2023/03/13 00:10:13;;;;;;;37.07;9.23;;;;;;;;;;5026092;28;20476;-82
2023/03/13 00:12:41;;;;;;;34.67;9.20;;;;;;;;;;5019539;28;20403;-82
2023/03/13 00:15:09;;;;;;;37.93;9.43;;;;;;;;;;5032833;28;20871;-82
2023/03/13 00:17:42;;;;;;;36.38;9.35;;;;;;;;;;5020705;28;20430;-82
2023/03/13 00:20:12;;;;;;;33.08;8.95;;;;;;;;;;5035207;28;20424;-81
2023/03/13 00:22:44;;;;;;;36.08;9.20;;;;;;;;;;5024208;28;20420;-82
2023/03/13 00:25:17;;;;;;;37.05;8.35;;;;;;;;;;5037820;28;20876;-82
2023/03/13 00:27:45;;;;;;;37.30;8.38;;;;;;;;;;5020495;28;20411;-82
2023/03/13 00:30:18;;;;;;;38.22;8.90;;;;;;;;;;5024135;28;20414;-82
2023/03/13 00:32:51;;;;;;;33.47;7.63;;;;;;;;;;5030226;28;20463;-81
2023/03/13 00:35:20;;;;;;;34.53;8.05;;;;;;;;;;5030374;28;20419;-81
2023/03/13 00:37:53;;;;;;;32.35;7.53;;;;;;;;;;5020341;28;20929;-82
2023/03/13 00:40:26;;;;;;;35.53;7.95;;;;;;;;;;5036426;28;20421;-82
2023/03/13 00:42:53;;;;;;;33.17;7.65;;;;;;;;;;5021020;28;20422;-82
2023/03/13 00:45:26;;;;;;;33.15;7.70;;;;;;;;;;5037345;28;20431;-82
2023/03/13 00:47:54;;;;;;;30.23;6.63;;;;;;;;;;5023511;28;20466;-82
2023/03/13 00:50:28;;;;;;;39.63;7.90;;;;;;;;;;5026271;28;20439;-82
2023/03/13 00:53:01;;;;;;;31.63;7.13;;;;;;;;;;5037308;28;20426;-82
2023/03/13 00:55:29;;;;;;;36.50;7.43;;;;;;;;;;5026257;28;20409;-82
2023/03/13 00:57:57;;;;;;;34.33;7.28;;;;;;;;;;5035403;28;20433;-82
2023/03/13 01:00:24;;;;;;;33.30;7.50;;;;;;;;;;5027238;28;20439;-82
2023/03/13 01:02:57;;;;;;;32.05;6.80;;;;;;;;;;5038119;28;20816;-82
2023/03/13 01:05:31;;;;;;;31.38;6.68;;;;;;;;;;5026275;28;20429;-82
2023/03/13 01:07:59;;;;;;;35.30;7.43;;;;;;;;;;5037373;28;20912;-81
2023/03/13 01:10:27;;;;;;;38.80;7.17;;;;;;;;;;5027389;28;20416;-82
2023/03/13 01:13:00;;;;;;;44.55;7.85;;;;;;;;;;5040742;28;21021;-82
2023/03/13 01:15:28;;;;;;;35.40;7.13;;;;;;;;;;5020491;28;20427;-82
2023/03/13 01:18:00;;;;;;;36.58;6.97;;;;;;;;;;5036044;28;20431;-81
2023/03/13 01:20:35;;;;;;;38.38;7.57;;;;;;;;;;5022714;28;20442;-82
2023/03/13 01:23:02;;;;;;;40.40;7.55;;;;;;;;;;5039535;28;20649;-81
2023/03/13 01:25:36;;;;;;;36.83;7.47;;;;;;;;;;5037410;28;20435;-81
2023/03/13 01:28:04;;;;;;;36.28;7.00;;;;;;;;;;5028369;28;20419;-82
2023/03/13 01:30:32;;;;;;;39.58;7.63;;;;;;;;;;5022562;28;20436;-82
2023/03/13 01:33:05;;;;;;;36.28;6.75;;;;;;;;;;5027587;28;20785;-82
2023/03/13 01:35:39;;;;;;;31.48;6.70;;;;;;;;;;5022508;28;20437;-81
2023/03/13 01:38:07;;;;;;;45.17;8.05;;;;;;;;;;5037239;28;20432;-82
2023/03/13 01:40:40;;;;;;;33.58;7.03;;;;;;;;;;5027506;28;20443;-82
2023/03/13 01:43:18;;;;;;;29.77;6.47;;;;;;;;;;5023953;28;20418;-82
2023/03/13 01:45:54;;;;;;;34.55;7.30;;;;;;;;;;5039116;28;20929;-82
2023/03/13 01:48:35;;;;;;;38.25;7.88;;;;;;;;;;5020991;28;20415;-82
2023/03/13 01:51:07;;;;;;;42.72;7.70;;;;;;;;;;5036069;28;20439;-82
2023/03/13 01:53:37;;;;;;;35.60;7.60;;;;;;;;;;5024114;28;20423;-82
2023/03/13 01:56:12;;;;;;;35.72;7.88;;;;;;;;;;5036294;28;20435;-82
2023/03/13 01:58:45;;;;;;;41.72;8.20;;;;;;;;;;5024983;28;20950;-82
2023/03/13 02:01:19;;;;;;;38.92;7.97;;;;;;;;;;5019521;28;20434;-83
2023/03/13 02:03:52;;;;;;;37.63;7.20;;;;;;;;;;5025281;28;20444;-82
2023/03/13 02:06:30;;;;;;;33.28;7.45;;;;;;;;;;5036967;28;20419;-82
2023/03/13 02:09:05;;;;;;;37.75;7.40;;;;;;;;;;5028388;28;20597;-82
2023/03/13 02:11:43;;;;;;;43.22;7.82;;;;;;;;;;5035663;28;20920;-82
2023/03/13 02:14:18;;;;;;;39.83;7.77;;;;;;;;;;5027811;28;20458;-82
2023/03/13 02:16:52;;;;;;;35.03;7.65;;;;;;;;;;5037443;28;20435;-82
2023/03/13 02:19:28;;;;;;;46.50;8.07;;;;;;;;;;5020223;28;20428;-83
2023/03/13 02:22:00;;;;;;;44.80;7.93;;;;;;;;;;5020530;28;21210;-82
2023/03/13 02:24:32;;;;;;;39.83;8.00;;;;;;;;;;5027273;28;20415;-82
2023/03/13 02:27:01;;;;;;;34.08;7.90;;;;;;;;;;5035528;28;20427;-82
2023/03/13 02:29:38;;;;;;;38.23;7.60;;;;;;;;;;5027335;28;20431;-81
2023/03/13 02:32:11;;;;;;;30.77;7.40;;;;;;;;;;5024792;28;20433;-81
2023/03/13 02:34:44;;;;;;;40.30;7.50;;;;;;;;;;5021768;28;20887;-82
2023/03/13 02:37:17;;;;;;;43.35;8.18;;;;;;;;;;5036424;28;20456;-82
2023/03/13 02:39:51;;;;;;;34.70;7.10;;;;;;;;;;5035372;28;20439;-82
2023/03/13 02:42:21;;;;;;;38.00;7.32;;;;;;;;;;5026568;28;20457;-82
2023/03/13 02:44:54;;;;;;;43.83;8.60;;;;;;;;;;5027250;28;20419;-82
2023/03/13 02:47:23;;;;;;;37.70;7.85;;;;;;;;;;5027954;28;20427;-82
2023/03/13 02:49:55;;;;;;;43.83;7.65;;;;;;;;;;5025481;28;20440;-81
2023/03/13 02:52:30;;;;;;;33.13;8.07;;;;;;;;;;5027156;28;20424;-82
2023/03/13 02:55:00;;;;;;;42.25;8.50;;;;;;;;;;5027161;28;20899;-82
2023/03/13 02:57:30;;;;;;;36.78;7.40;;;;;;;;;;5027349;28;20435;-82
2023/03/13 03:00:05;;;;;;;32.03;7.60;;;;;;;;;;5024576;28;20433;-81
2023/03/13 03:02:38;;;;;;;32.72;6.90;;;;;;;;;;5019222;28;20456;-82
2023/03/13 03:05:06;;;;;;;34.67;7.18;;;;;;;;;;5018200;28;20453;-81
2023/03/13 03:07:39;;;;;;;36.53;7.80;;;;;;;;;;5036431;28;20434;-82
2023/03/13 03:10:08;;;;;;;37.05;7.05;;;;;;;;;;5036078;28;20415;-81
2023/03/13 03:12:37;;;;;;;40.63;7.15;;;;;;;;;;5035958;28;20428;-82
2023/03/13 03:15:11;;;;;;;33.42;7.18;;;;;;;;;;5021543;28;20923;-81
2023/03/13 03:17:43;;;;;;;36.65;7.70;;;;;;;;;;5018345;28;20416;-81
2023/03/13 03:20:16;;;;;;;35.58;7.55;;;;;;;;;;5034607;28;20865;-81
2023/03/13 03:22:49;;;;;;;37.28;8.15;;;;;;;;;;5019013;28;20427;-81
2023/03/13 03:25:17;;;;;;;34.50;7.18;;;;;;;;;;5020698;28;20421;-81
2023/03/13 03:27:51;;;;;;;42.67;7.35;;;;;;;;;;5021971;28;20420;-81
2023/03/13 03:30:24;;;;;;;31.17;6.82;;;;;;;;;;5017684;28;20477;-81
2023/03/13 03:32:52;;;;;;;38.97;7.22;;;;;;;;;;5021421;28;20408;-81
2023/03/13 03:35:22;;;;;;;33.72;6.75;;;;;;;;;;5022455;28;20772;-81
2023/03/13 03:37:55;;;;;;;36.53;6.60;;;;;;;;;;5026543;28;20450;-81
2023/03/13 03:40:22;;;;;;;30.58;6.47;;;;;;;;;;5024594;28;20435;-81
2023/03/13 03:42:52;;;;;;;37.50;6.93;;;;;;;;;;5038024;28;20829;-81
2023/03/13 03:45:25;;;;;;;37.33;6.88;;;;;;;;;;5025789;28;20436;-81
2023/03/13 03:47:58;;;;;;;40.17;7.10;;;;;;;;;;5025838;28;20424;-80
2023/03/13 03:50:31;;;;;;;33.35;6.05;;;;;;;;;;5021191;28;20666;-81
2023/03/13 03:53:04;;;;;;;32.67;6.97;;;;;;;;;;5036274;28;20796;-81
2023/03/13 03:55:32;;;;;;;35.22;6.00;;;;;;;;;;5037832;28;20415;-81
2023/03/13 03:58:01;;;;;;;37.63;5.65;;;;;;;;;;5023760;28;20408;-81
2023/03/13 04:00:57;;;;;;;42.38;6.03;;;;;;;;;;5019302;28;20467;-81
2023/03/13 04:03:26;;;;;;;33.38;6.18;;;;;;;;;;5028273;28;20436;-81
2023/03/13 04:05:59;;;;;;;36.47;5.82;;;;;;;;;;5038886;28;20779;-82
2023/03/13 04:08:32;;;;;;;34.97;6.20;;;;;;;;;;5020622;28;20755;-81
2023/03/13 04:11:05;;;;;;;37.63;6.27;;;;;;;;;;5028127;28;20436;-81
2023/03/13 04:13:38;;;;;;;35.22;5.95;;;;;;;;;;5037386;28;20855;-81
2023/03/13 04:16:11;;;;;;;37.15;6.22;;;;;;;;;;5037767;28;20432;-81
2023/03/13 04:18:45;;;;;;;37.92;5.80;;;;;;;;;;5035626;28;20425;-80
2023/03/13 04:21:19;;;;;;;32.17;5.77;;;;;;;;;;5027209;28;20431;-83
2023/03/13 04:23:58;;;;;;;37.42;5.65;;;;;;;;;;5028811;28;20435;-80
2023/03/13 04:26:33;;;;;;;30.60;5.57;;;;;;;;;;5036319;28;20422;-81
2023/03/13 04:29:07;;;;;;;39.88;5.93;;;;;;;;;;5028866;28;20430;-81
2023/03/13 04:31:51;;;;;;;36.42;6.05;;;;;;;;;;5028573;28;20439;-81
2023/03/13 04:34:55;;;;;;;33.00;5.97;;;;;;;;;;5026986;28;20534;-81
2023/03/13 04:37:27;;;;;;;38.33;5.95;;;;;;;;;;5021995;28;20442;-81
2023/03/13 04:40:15;;;;;;;38.88;6.00;;;;;;;;;;5024214;28;20424;-82
2023/03/13 04:43:03;;;;;;;25.98;5.35;;;;;;;;;;5026259;28;20768;-81
2023/03/13 04:45:56;;;;;;;32.15;5.85;;;;;;;;;;5023086;28;20426;-81
2023/03/13 04:48:50;;;;;;;36.33;5.90;;;;;;;;;;5027565;28;20432;-81
2023/03/13 04:51:46;;;;;;;28.03;5.27;;;;;;;;;;5021714;28;20441;-81
2023/03/13 04:54:27;;;;;;;33.70;5.00;;;;;;;;;;4966726;28;1775463;-81
2023/03/13 04:57:29;;;;;;;30.88;5.72;;;;;;;;;;5028340;28;20424;-81
2023/03/13 05:00:12;;;;;;;42.28;6.35;;;;;;;;;;5038271;28;20419;-81
2023/03/13 05:03:09;;;;;;;30.73;5.43;;;;;;;;;;5023539;28;20470;-81
2023/03/13 05:06:00;;;;;;;31.50;5.38;;;;;;;;;;5028894;28;20443;-81
2023/03/13 05:08:56;;;;;;;29.42;5.43;;;;;;;;;;5026357;28;20929;-81
2023/03/13 05:11:40;;;;;;;34.78;5.47;;;;;;;;;;5036175;28;20434;-80
2023/03/13 05:14:24;;;;;;;31.80;5.40;;;;;;;;;;5028400;28;20413;-81
2023/03/13 05:17:09;;;;;;;36.00;5.60;;;;;;;;;;5035505;28;20434;-81
2023/03/13 05:19:56;;;;;;;34.43;5.37;;;;;;;;;;5025722;28;20434;-81
2023/03/13 05:22:37;;;;;;;28.33;5.10;;;;;;;;;;5036615;28;20441;-81
2023/03/13 05:25:33;;;;;;;29.98;5.97;;;;;;;;;;5016108;28;20939;-81
2023/03/13 05:28:14;;;;;;;31.60;5.65;;;;;;;;;;5026714;28;20416;-81
2023/03/13 05:31:08;;;;;;;29.55;5.25;;;;;;;;;;5026277;28;20435;-82
2023/03/13 05:33:56;;;;;;;32.70;5.70;;;;;;;;;;5022218;28;20448;-81
2023/03/13 05:36:43;;;;;;;31.80;5.05;;;;;;;;;;5020674;28;20763;-81
2023/03/13 05:39:36;;;;;;;24.88;5.32;;;;;;;;;;5025787;28;20438;-81
2023/03/13 05:42:25;;;;;;;26.85;5.07;;;;;;;;;;5037730;28;20457;-81
2023/03/13 05:45:03;;;;;;;43.05;5.35;;;;;;;;;;5028190;28;20419;-81
2023/03/13 05:47:59;;;;;;;34.50;5.60;;;;;;;;;;5022882;28;20446;-81
2023/03/13 05:50:39;;;;;;;28.05;5.20;;;;;;;;;;5035972;28;20415;-81
2023/03/13 05:53:46;;;;;;;27.00;4.88;;;;;;;;;;5017934;28;20438;-81
2023/03/13 05:56:41;;;;;;;36.40;4.97;;;;;;;;;;5027349;28;20881;-80
2023/03/13 05:59:25;;;;;;;30.80;5.35;;;;;;;;;;5038957;28;20442;-81
2023/03/13 06:02:09;;;;;;;39.33;5.25;;;;;;;;;;5033269;28;20430;-80
2023/03/13 06:04:45;;;;;;;26.45;4.65;;;;;;;;;;5034797;28;20432;-81
2023/03/13 06:07:13;;;;;;;27.08;4.70;;;;;;;;;;5019809;28;20440;-81
2023/03/13 06:09:43;;;;;;;22.52;4.97;;;;;;;;;;5028280;28;20777;-80
2023/03/13 06:12:16;;;;;;;23.50;4.97;;;;;;;;;;5036106;28;20431;-81
2023/03/13 06:14:48;;;;;;;23.67;4.57;;;;;;;;;;5021576;28;20780;-81
2023/03/13 06:17:27;;;;;;;32.90;5.70;;;;;;;;;;5025892;28;20429;-81
2023/03/13 06:19:55;;;;;;;25.13;5.07;;;;;;;;;;5017125;28;20907;-81
2023/03/13 06:22:28;;;;;;;27.30;4.90;;;;;;;;;;5020904;28;20431;-81
2023/03/13 06:24:57;;;;;;;27.00;4.75;;;;;;;;;;5020678;28;20427;-80
2023/03/13 06:27:30;;;;;;;22.60;4.75;;;;;;;;;;5018809;28;20434;-80
2023/03/13 06:30:03;;;;;;;18.23;4.88;;;;;;;;;;5016989;28;20436;-81
2023/03/13 06:32:36;;;;;;;23.55;4.57;;;;;;;;;;5034874;28;20413;-81
2023/03/13 06:35:09;;;;;;;19.20;4.47;;;;;;;;;;5020421;28;20437;-80
2023/03/13 06:37:41;;;;;;;18.75;4.60;;;;;;;;;;5020401;28;20941;-81
2023/03/13 06:40:16;;;;;;;18.13;4.43;;;;;;;;;;5021356;28;20426;-81
2023/03/13 06:42:49;;;;;;;20.85;4.20;;;;;;;;;;5018777;28;20448;-82
2023/03/13 06:45:17;;;;;;;19.90;4.25;;;;;;;;;;5037242;28;20416;-80
2023/03/13 06:47:51;;;;;;;18.10;4.00;;;;;;;;;;5026581;28;20421;-81
2023/03/13 06:50:23;;;;;;;20.55;4.43;;;;;;;;;;5020010;28;21990;-81
2023/03/13 06:52:57;;;;;;;16.75;3.80;;;;;;;;;;5020925;28;20487;-81
2023/03/13 06:55:31;;;;;;;16.00;3.50;;;;;;;;;;5024047;28;20434;-81
2023/03/13 06:57:59;;;;;;;14.50;3.53;;;;;;;;;;5020402;28;20416;-81
2023/03/13 07:00:33;;;;;;;21.60;3.85;;;;;;;;;;5021585;28;20427;-82
2023/03/13 07:03:01;;;;;;;17.75;3.47;;;;;;;;;;5035206;28;20434;-81
2023/03/13 07:05:33;;;;;;;18.50;4.00;;;;;;;;;;5037100;28;20508;-81
2023/03/13 07:08:06;;;;;;;19.55;3.90;;;;;;;;;;5022644;28;20439;-81
2023/03/13 07:10:42;;;;;;;15.02;3.63;;;;;;;;;;5037842;28;21034;-81
2023/03/13 07:13:14;;;;;;;17.40;3.60;;;;;;;;;;5018899;28;20431;-81
2023/03/13 07:15:48;;;;;;;18.63;3.60;;;;;;;;;;5018838;28;20431;-81
2023/03/13 07:18:15;;;;;;;12.85;3.50;;;;;;;;;;5022033;28;20412;-81
2023/03/13 07:20:53;;;;;;;18.65;3.80;;;;;;;;;;5019665;28;20440;-81
2023/03/13 07:23:26;;;;;;;14.10;3.90;;;;;;;;;;5021711;28;20426;-81
2023/03/13 07:26:01;;;;;;;14.93;3.83;;;;;;;;;;5026485;28;20431;-81
2023/03/13 07:28:34;;;;;;;15.82;3.90;;;;;;;;;;5036132;28;20434;-80
2023/03/13 07:31:06;;;;;;;17.52;3.53;;;;;;;;;;5035587;28;20788;-81
2023/03/13 07:33:34;;;;;;;14.68;3.55;;;;;;;;;;5025656;28;20421;-81
2023/03/13 07:36:07;;;;;;;15.10;3.53;;;;;;;;;;5025425;28;20910;-81
2023/03/13 07:38:35;;;;;;;12.52;2.75;;;;;;;;;;5033794;28;20442;-81
2023/03/13 07:41:04;;;;;;;13.95;3.15;;;;;;;;;;5020777;28;20428;-81
2023/03/13 07:43:37;;;;;;;11.70;2.72;;;;;;;;;;5038054;28;20447;-80
2023/03/13 07:46:11;;;;;;;14.82;2.95;;;;;;;;;;5020518;28;20411;-81
2023/03/13 07:48:44;;;;;;;10.02;2.67;;;;;;;;;;5021091;28;20411;-81
2023/03/13 07:51:18;;;;;;;11.30;2.97;;;;;;;;;;5020526;28;20909;-80
2023/03/13 07:53:51;;;;;;;8.57;2.75;;;;;;;;;;5016112;28;20425;-81
2023/03/13 07:56:21;;;;;;;11.27;3.03;;;;;;;;;;5017399;28;20423;-81
2023/03/13 07:58:49;;;;;;;10.13;2.83;;;;;;;;;;5023907;28;20437;-81
2023/03/13 08:01:23;;;;;;;10.15;2.78;;;;;;;;;;5018153;28;20914;-80
2023/03/13 08:03:51;;;;;;;9.27;2.42;;;;;;;;;;5020657;28;20426;-81
2023/03/13 08:06:25;;;;;;;8.93;2.58;;;;;;;;;;5019830;28;20428;-81
2023/03/13 08:08:58;;;;;;;7.03;2.50;;;;;;;;;;5026621;28;20442;-80
2023/03/13 08:11:32;;;;;;;6.78;2.80;;;;;;;;;;5023360;28;20427;-80
2023/03/13 08:14:06;;;;;;;10.50;2.95;;;;;;;;;;5027626;28;20423;-83
2023/03/13 08:16:34;;;;;;;7.07;2.70;;;;;;;;;;5019404;28;20428;-80
2023/03/13 08:19:07;;;;;;;8.25;2.50;;;;;;;;;;5025755;28;20441;-80
2023/03/13 08:21:36;;;;;;;9.50;2.80;;;;;;;;;;5018982;28;20428;-81
2023/03/13 08:24:11;;;;;;;7.07;2.90;;;;;;;;;;5018542;28;20448;-81
2023/03/13 08:26:45;;;;;;;8.32;2.70;;;;;;;;;;5036018;28;20438;-81
2023/03/13 08:29:18;;;;;;;10.55;3.17;;;;;;;;;;5016812;28;20503;-81
2023/03/13 08:31:47;;;;;;;8.65;2.97;;;;;;;;;;5017691;28;20445;-81
2023/03/13 08:34:15;;;;;;;12.18;3.28;;;;;;;;;;5019323;28;20438;-81
2023/03/13 08:36:48;;;;;;;9.00;3.20;;;;;;;;;;5016669;28;20435;-80
2023/03/13 08:39:21;;;;;;;7.63;3.05;;;;;;;;;;5015397;28;20424;-84
2023/03/13 08:41:50;;;;;;;8.50;2.90;;;;;;;;;;5019729;28;20450;-81
2023/03/13 08:44:18;;;;;;;7.32;2.90;;;;;;;;;;5036702;28;20435;-82
2023/03/13 08:46:47;;;;;;;8.07;3.00;;;;;;;;;;5019634;28;20982;-83
2023/03/13 08:49:20;;;;;;;8.18;3.00;;;;;;;;;;5023265;28;20488;-82
2023/03/13 08:51:48;;;;;;;7.00;3.00;;;;;;;;;;5022813;28;20438;-83
2023/03/13 08:54:21;;;;;;;9.63;2.83;;;;;;;;;;5037122;28;20439;-82
2023/03/13 08:56:50;;;;;;;9.63;3.00;;;;;;;;;;5020459;28;20519;-81
2023/03/13 08:59:22;;;;;;;8.02;2.90;;;;;;;;;;5034301;28;20443;-81
2023/03/13 09:01:55;;;;;;;7.50;2.95;;;;;;;;;;5021198;28;20431;-82
2023/03/13 09:04:28;;;;;;;7.47;3.00;;;;;;;;;;5024518;28;20434;-82
2023/03/13 09:07:01;;;;;;;7.75;3.30;;;;;;;;;;5014835;28;20941;-82
2023/03/13 09:09:34;;;;;;;9.35;3.42;;;;;;;;;;5007737;28;20431;-82
2023/03/13 09:12:08;;;;;;;8.20;3.67;;;;;;;;;;5003981;28;20453;-81
2023/03/13 09:14:41;;;;;;;8.77;3.80;;;;;;;;;;5000579;28;20787;-83
2023/03/13 09:17:09;;;;;;;8.33;4.00;;;;;;;;;;5001206;28;20431;-82
2023/03/13 09:19:37;;;;;;;10.02;4.18;;;;;;;;;;4999506;28;20443;-82
2023/03/13 09:22:05;;;;;;;12.68;4.68;;;;;;;;;;5000026;28;20438;-82
2023/03/13 09:24:39;;;;;;;11.75;4.57;;;;;;;;;;5010893;28;20431;-81
2023/03/13 09:27:14;;;;;;;10.32;5.05;;;;;;;;;;5007339;28;20411;-82
2023/03/13 09:29:47;;;;;;;13.37;5.33;;;;;;;;;;5021533;28;20476;-82
2023/03/13 09:32:20;;;;;;;10.50;5.27;;;;;;;;;;5009897;28;21096;-82
2023/03/13 09:34:52;;;;;;;11.23;4.93;;;;;;;;;;5007200;28;20557;-80
2023/03/13 09:37:25;;;;;;;9.63;4.93;;;;;;;;;;5009532;28;21386;-82
2023/03/13 09:39:53;;;;;;;11.68;5.22;;;;;;;;;;5006134;28;20430;-83
2023/03/13 09:42:32;;;;;;;11.50;5.50;;;;;;;;;;5008502;28;20457;-83
2023/03/13 09:45:06;;;;;;;11.90;5.27;;;;;;;;;;4975703;28;20791;-82
2023/03/13 09:47:40;;;;;;;10.15;4.97;;;;;;;;;;4983221;28;20916;-82
2023/03/13 09:50:14;;;;;;;10.13;4.72;;;;;;;;;;4984283;28;21268;-83
2023/03/13 09:52:48;;;;;;;12.37;5.50;;;;;;;;;;4986630;28;20853;-83
2023/03/13 09:55:23;;;;;;;11.65;5.10;;;;;;;;;;4987302;28;20433;-83
2023/03/13 09:58:00;;;;;;;7.60;4.40;;;;;;;;;;4978864;28;20447;-84
2023/03/13 10:00:34;;;;;;;12.27;5.18;;;;;;;;;;4979573;28;20448;-85
2023/03/13 10:03:05;;;;;;;12.05;5.05;;;;;;;;;;4987847;28;20436;-83
2023/03/13 10:05:39;;;;;;;10.80;4.80;;;;;;;;;;4982212;28;20432;-85
2023/03/13 10:08:15;;;;;;;9.98;4.90;;;;;;;;;;4977865;28;20444;-83
2023/03/13 10:10:50;;;;;;;7.60;4.78;;;;;;;;;;4990901;28;20443;-83
2023/03/13 10:13:31;;;;;;;12.73;5.50;;;;;;;;;;4979718;28;20898;-85
2023/03/13 10:16:01;;;;;;;10.65;5.20;;;;;;;;;;4983073;28;20436;-82
2023/03/13 10:18:36;;;;;;;10.57;5.25;;;;;;;;;;4987933;28;20429;-83
2023/03/13 10:21:12;;;;;;;11.25;5.53;;;;;;;;;;4980264;28;20413;-83
2023/03/13 10:23:48;;;;;;;13.17;5.50;;;;;;;;;;4982149;28;20500;-85
2023/03/13 10:26:19;;;;;;;9.25;5.00;;;;;;;;;;4984521;28;20420;-83
2023/03/13 10:28:53;;;;;;;10.30;4.80;;;;;;;;;;4982035;28;20440;-82
2023/03/13 10:31:23;;;;;;;10.10;4.90;;;;;;;;;;4985073;28;20429;-83
2023/03/13 10:34:05;;;;;;;8.35;4.80;;;;;;;;;;4986643;28;20964;-83
2023/03/13 10:36:43;;;;;;;8.35;4.40;;;;;;;;;;4981927;28;20437;-84
2023/03/13 10:39:15;;;;;;;8.85;4.43;;;;;;;;;;4997581;28;20459;-85
2023/03/13 10:41:43;;;;;;;9.75;4.20;;;;;;;;;;4981504;28;20425;-83
2023/03/13 10:44:18;;;;;;;10.00;4.57;;;;;;;;;;4987002;28;20433;-82
2023/03/13 10:46:47;;;;;;;7.65;4.43;;;;;;;;;;4984164;28;20443;-83
2023/03/13 10:49:20;;;;;;;7.53;4.03;;;;;;;;;;4984957;28;20429;-84
2023/03/13 10:51:54;;;;;;;9.68;3.75;;;;;;;;;;4980431;28;20433;-83
2023/03/13 10:54:23;;;;;;;7.18;3.50;;;;;;;;;;4989454;28;20413;-81
2023/03/13 10:56:51;;;;;;;8.25;3.80;;;;;;;;;;4986711;28;20432;-83
2023/03/13 10:59:26;;;;;;;6.40;3.30;;;;;;;;;;4986113;28;20995;-81
2023/03/13 11:02:00;;;;;;;6.75;3.15;;;;;;;;;;4981370;28;21029;-81
2023/03/13 11:04:36;;;;;;;7.20;3.17;;;;;;;;;;4987965;28;20459;-82
2023/03/13 11:07:04;;;;;;;6.63;3.00;;;;;;;;;;4980376;28;21136;-82
2023/03/13 11:09:32;;;;;;;5.82;2.88;;;;;;;;;;4983779;28;20516;-81
2023/03/13 11:12:07;;;;;;;5.45;2.70;;;;;;;;;;4987694;28;20437;-82
2023/03/13 11:14:42;;;;;;;7.82;3.10;;;;;;;;;;4983844;28;20440;-81
2023/03/13 11:17:18;;;;;;;6.68;3.00;;;;;;;;;;5002355;28;20441;-81
2023/03/13 11:19:57;;;;;;;6.20;2.88;;;;;;;;;;4982943;28;20439;-83
2023/03/13 11:22:30;;;;;;;7.28;3.30;;;;;;;;;;4980346;28;20429;-83
2023/03/13 11:25:13;;;;;;;6.43;2.90;;;;;;;;;;4982130;28;20696;-83
2023/03/13 11:27:44;;;;;;;5.72;2.70;;;;;;;;;;4983535;28;20441;-83
2023/03/13 11:30:21;;;;;;;7.20;2.97;;;;;;;;;;4980324;28;20429;-81
2023/03/13 11:32:52;;;;;;;7.63;2.77;;;;;;;;;;4981172;28;20437;-81
2023/03/13 11:35:35;;;;;;;7.47;2.95;;;;;;;;;;4980484;28;20436;-81
2023/03/13 11:38:11;;;;;;;8.00;3.00;;;;;;;;;;4980019;28;21446;-80
2023/03/13 11:40:46;;;;;;;6.65;3.00;;;;;;;;;;4984227;28;20429;-79
2023/03/13 11:43:29;;;;;;;6.53;2.78;;;;;;;;;;4982742;28;20432;-80
2023/03/13 11:46:12;;;;;;;7.80;2.90;;;;;;;;;;4983061;28;20908;-80
2023/03/13 11:49:04;;;;;;;8.27;3.00;;;;;;;;;;4982308;28;20520;-80
2023/03/13 11:51:43;;;;;;;8.60;3.37;;;;;;;;;;4977433;28;20501;-81
2023/03/13 11:54:34;;;;;;;6.80;2.70;;;;;;;;;;4983766;28;20432;-79
2023/03/13 11:57:11;;;;;;;6.78;2.60;;;;;;;;;;4984029;28;20481;-80
2023/03/13 11:59:48;;;;;;;8.77;2.90;;;;;;;;;;4983171;28;20424;-80
2023/03/13 12:02:22;;;;;;;6.00;2.70;;;;;;;;;;4977463;28;20440;-80
2023/03/13 12:04:54;;;;;;;10.10;3.10;;;;;;;;;;4946863;28;20453;-80
2023/03/13 12:07:31;;;;;;;5.55;2.90;;;;;;;;;;4974267;28;20441;-80
2023/03/13 12:10:01;;;;;;;6.68;3.10;;;;;;;;;;4972506;28;20431;-80
2023/03/13 12:12:38;;;;;;;7.85;3.10;;;;;;;;;;4975696;28;20493;-80
2023/03/13 12:15:22;;;;;;;6.40;2.90;;;;;;;;;;4971765;28;20965;-80
2023/03/13 12:17:57;;;;;;;6.47;3.00;;;;;;;;;;4979567;28;20928;-80
2023/03/13 12:20:34;;;;;;;6.72;2.95;;;;;;;;;;4983685;28;20789;-80
2023/03/13 12:23:17;;;;;;;7.28;3.10;;;;;;;;;;4977381;28;20426;-80
2023/03/13 12:25:52;;;;;;;8.18;2.85;;;;;;;;;;4982905;28;20431;-79
2023/03/13 12:28:27;;;;;;;5.18;2.65;;;;;;;;;;4971147;28;20449;-79
2023/03/13 12:31:04;;;;;;;7.13;2.60;;;;;;;;;;4975570;28;20529;-81
2023/03/13 12:33:35;;;;;;;6.30;2.50;;;;;;;;;;4973901;28;20484;-79
2023/03/13 12:36:07;;;;;;;6.55;2.65;;;;;;;;;;4972128;28;20421;-80
2023/03/13 12:38:44;;;;;;;6.45;2.50;;;;;;;;;;4972936;28;20480;-80
2023/03/13 12:41:23;;;;;;;8.82;2.58;;;;;;;;;;4972322;28;20433;-80
2023/03/13 12:43:56;;;;;;;6.68;2.40;;;;;;;;;;4977871;28;20856;-80
2023/03/13 12:46:32;;;;;;;6.80;2.38;;;;;;;;;;4977555;28;20444;-84
2023/03/13 12:49:21;;;;;;;4.97;2.20;;;;;;;;;;4975463;28;20428;-79
2023/03/13 12:52:04;;;;;;;4.80;2.28;;;;;;;;;;4967567;28;20457;-80
2023/03/13 12:54:46;;;;;;;7.20;2.30;;;;;;;;;;4976972;28;20995;-79
2023/03/13 12:57:31;;;;;;;5.80;2.20;;;;;;;;;;4973384;28;20433;-80
2023/03/13 13:00:04;;;;;;;5.05;1.98;;;;;;;;;;4972475;28;20836;-80
2023/03/13 13:02:37;;;;;;;5.23;2.00;;;;;;;;;;4973109;28;20877;-79
2023/03/13 13:05:17;;;;;;;5.77;1.80;;;;;;;;;;4951650;28;20429;-79
2023/03/13 13:07:54;;;;;;;5.32;1.83;;;;;;;;;;4970380;28;21107;-78
2023/03/13 13:10:27;;;;;;;4.93;2.00;;;;;;;;;;4977766;28;20442;-79
2023/03/13 13:13:29;;;;;;;4.78;1.70;;;;;;;;;;4977221;28;20443;-80
2023/03/13 13:16:03;;;;;;;4.93;1.90;;;;;;;;;;4973853;28;20449;-80
2023/03/13 13:18:36;;;;;;;6.15;1.90;;;;;;;;;;4975771;28;21365;-80
2023/03/13 13:21:22;;;;;;;3.27;1.73;;;;;;;;;;4978832;28;20971;-79
2023/03/13 13:23:52;;;;;;;3.47;1.50;;;;;;;;;;4977602;28;20433;-79
2023/03/13 13:26:48;;;;;;;4.57;1.45;;;;;;;;;;4979369;28;20433;-80
2023/03/13 13:29:42;;;;;;;3.95;1.50;;;;;;;;;;4971304;28;20430;-80
2023/03/13 13:32:16;;;;;;;6.53;1.90;;;;;;;;;;4975154;28;20425;-79
2023/03/13 13:34:56;;;;;;;6.50;1.40;;;;;;;;;;4971597;28;20437;-80
2023/03/13 13:37:26;;;;;;;4.60;1.58;;;;;;;;;;4986853;28;20424;-80
2023/03/13 13:39:54;;;;;;;6.13;1.65;;;;;;;;;;4981840;28;21113;-81
2023/03/13 13:42:40;;;;;;;3.20;1.45;;;;;;;;;;4979614;28;20432;-79
2023/03/13 13:45:24;;;;;;;5.22;1.48;;;;;;;;;;4985769;28;20436;-80
2023/03/13 13:48:24;;;;;;;4.72;1.40;;;;;;;;;;4976764;28;20436;-79
2023/03/13 13:51:10;;;;;;;5.80;1.40;;;;;;;;;;4987837;28;20418;-80
2023/03/13 13:53:44;;;;;;;4.70;1.55;;;;;;;;;;4975616;28;20440;-79
2023/03/13 13:56:27;;;;;;;5.82;1.63;;;;;;;;;;4973234;28;21065;-80
2023/03/13 13:59:02;;;;;;;4.20;1.50;;;;;;;;;;4998076;28;21301;-79
2023/03/13 14:01:36;;;;;;;5.53;1.53;;;;;;;;;;4979256;28;20871;-77
2023/03/13 14:04:15;;;;;;;5.32;1.60;;;;;;;;;;4961408;28;20447;-80
2023/03/13 14:06:45;;;;;;;3.75;1.40;;;;;;;;;;4974577;28;20428;-80
2023/03/13 14:09:22;;;;;;;5.53;1.43;;;;;;;;;;4986461;28;20475;-80
2023/03/13 14:11:56;;;;;;;7.28;1.45;;;;;;;;;;4976050;28;20421;-78
2023/03/13 14:14:29;;;;;;;5.18;1.50;;;;;;;;;;4972041;28;20444;-80
2023/03/13 14:16:57;;;;;;;4.45;1.40;;;;;;;;;;4978431;28;20955;-79
2023/03/13 14:19:36;;;;;;;5.72;1.30;;;;;;;;;;4974455;28;20432;-79
2023/03/13 14:22:09;;;;;;;5.40;1.58;;;;;;;;;;4980144;28;20476;-79
2023/03/13 14:24:55;;;;;;;3.63;1.40;;;;;;;;;;4976684;28;20436;-80
2023/03/13 14:27:24;;;;;;;4.57;1.50;;;;;;;;;;4977891;28;20418;-80
2023/03/13 14:30:00;;;;;;;5.10;1.60;;;;;;;;;;4980700;28;20950;-79
2023/03/13 14:32:33;;;;;;;4.15;1.50;;;;;;;;;;4979341;28;20421;-80
2023/03/13 14:35:08;;;;;;;5.95;1.58;;;;;;;;;;4970591;28;20913;-80
2023/03/13 14:37:37;;;;;;;5.40;1.50;;;;;;;;;;4973985;28;20437;-80
2023/03/13 14:40:18;;;;;;;4.68;1.90;;;;;;;;;;4968903;28;20424;-78
2023/03/13 14:42:47;;;;;;;5.00;1.47;;;;;;;;;;4974907;28;20434;-80
2023/03/13 14:45:26;;;;;;;2.40;1.38;;;;;;;;;;4976056;28;20433;-79
2023/03/13 14:47:54;;;;;;;5.07;1.55;;;;;;;;;;4982837;28;20442;-79
2023/03/13 14:50:28;;;;;;;5.70;1.50;;;;;;;;;;4983925;28;20618;-80
2023/03/13 14:53:03;;;;;;;4.63;1.60;;;;;;;;;;4970545;28;20428;-79
2023/03/13 14:55:39;;;;;;;5.82;1.40;;;;;;;;;;4977063;28;20421;-80
2023/03/13 14:58:25;;;;;;;5.10;1.60;;;;;;;;;;5000309;28;20448;-80
2023/03/13 15:00:58;;;;;;;6.35;1.75;;;;;;;;;;4976182;28;20428;-79
2023/03/13 15:03:31;;;;;;;4.30;1.55;;;;;;;;;;4981162;28;20442;-80
2023/03/13 15:06:17;;;;;;;4.63;1.50;;;;;;;;;;4950071;28;20445;-79
2023/03/13 15:08:46;;;;;;;4.10;1.52;;;;;;;;;;4975869;28;20545;-80
2023/03/13 15:11:21;;;;;;;3.63;1.40;;;;;;;;;;4979971;28;20433;-80
2023/03/13 15:13:54;;;;;;;4.47;1.45;;;;;;;;;;4974996;28;20416;-79
2023/03/13 15:16:27;;;;;;;4.63;1.55;;;;;;;;;;4976866;28;20418;-80
2023/03/13 15:19:00;;;;;;;5.43;1.50;;;;;;;;;;4995906;28;20436;-79
2023/03/13 15:21:34;;;;;;;5.25;1.55;;;;;;;;;;4977447;28;20420;-80